sensor_id;sensor_type;location;lat;lon;timestamp;pressure;altitude;pressure_sealevel;temperature;humidity
71903;BME280;59778;50.310;18.780;2023-02-17T00:02:28;99422.97;;;1.13;98.04
71903;BME280;59778;50.310;18.780;2023-02-17T00:17:49;99422.38;;;1.21;97.51
71903;BME280;59778;50.310;18.780;2023-02-17T00:33:10;99414.97;;;1.24;98.93
71903;BME280;59778;50.310;18.780;2023-02-17T00:48:32;99400.59;;;1.48;97.14
71903;BME280;59778;50.310;18.780;2023-02-17T01:03:53;99390.38;;;1.53;96.58
71903;BME280;59778;50.310;18.780;2023-02-17T01:19:17;99389.19;;;1.46;93.97
71903;BME280;59778;50.310;18.780;2023-02-17T01:34:39;99380.78;;;1.28;92.76
71903;BME280;59778;50.310;18.780;2023-02-17T01:50:00;99388.31;;;1.23;93.70
71903;BME280;59778;50.310;18.780;2023-02-17T02:05:22;99378.97;;;1.17;93.23
71903;BME280;59778;50.310;18.780;2023-02-17T02:36:19;99341.38;;;1.19;94.64
71903;BME280;59778;50.310;18.780;2023-02-17T02:52:08;99334.72;;;1.13;96.91
71903;BME280;59778;50.310;18.780;2023-02-17T03:07:59;99334.97;;;1.10;96.83
71903;BME280;59778;50.310;18.780;2023-02-17T03:23:22;99323.16;;;1.13;97.69
71903;BME280;59778;50.310;18.780;2023-02-17T03:38:44;99310.38;;;1.27;97.63
71903;BME280;59778;50.310;18.780;2023-02-17T03:54:05;99288.47;;;1.45;97.66
71903;BME280;59778;50.310;18.780;2023-02-17T04:09:26;99287.84;;;1.52;97.87
71903;BME280;59778;50.310;18.780;2023-02-17T04:24:48;99279.34;;;1.79;97.15
71903;BME280;59778;50.310;18.780;2023-02-17T04:40:09;99275.19;;;1.86;97.63
71903;BME280;59778;50.310;18.780;2023-02-17T04:55:31;99263.00;;;2.14;96.87
71903;BME280;59778;50.310;18.780;2023-02-17T05:10:53;99239.34;;;2.19;97.49
71903;BME280;59778;50.310;18.780;2023-02-17T05:26:14;99227.66;;;2.41;95.81
71903;BME280;59778;50.310;18.780;2023-02-17T05:41:36;99240.38;;;2.48;97.24
71903;BME280;59778;50.310;18.780;2023-02-17T05:56:57;99235.69;;;2.71;95.67
71903;BME280;59778;50.310;18.780;2023-02-17T06:12:18;99218.34;;;2.75;96.07
71903;BME280;59778;50.310;18.780;2023-02-17T06:27:40;99195.25;;;2.93;95.92
71903;BME280;59778;50.310;18.780;2023-02-17T06:43:05;99191.78;;;3.21;94.57
71903;BME280;59778;50.310;18.780;2023-02-17T06:58:26;99174.03;;;3.49;94.14
71903;BME280;59778;50.310;18.780;2023-02-17T07:13:48;99198.47;;;3.85;92.56
71903;BME280;59778;50.310;18.780;2023-02-17T07:29:09;99191.94;;;4.25;90.93
71903;BME280;59778;50.310;18.780;2023-02-17T07:44:31;99184.06;;;4.51;89.96
71903;BME280;59778;50.310;18.780;2023-02-17T07:59:52;99166.09;;;4.79;88.83
71903;BME280;59778;50.310;18.780;2023-02-17T08:15:14;99164.34;;;4.88;88.73
71903;BME280;59778;50.310;18.780;2023-02-17T08:30:35;99140.00;;;4.89;89.70
71903;BME280;59778;50.310;18.780;2023-02-17T08:45:56;99148.09;;;5.07;92.13
71903;BME280;59778;50.310;18.780;2023-02-17T09:01:18;99153.59;;;5.33;91.12
71903;BME280;59778;50.310;18.780;2023-02-17T09:16:40;99150.91;;;5.33;90.35
71903;BME280;59778;50.310;18.780;2023-02-17T09:32:06;99135.63;;;5.33;93.46
71903;BME280;59778;50.310;18.780;2023-02-17T09:47:37;99132.38;;;5.47;94.79
71903;BME280;59778;50.310;18.780;2023-02-17T10:03:13;99139.28;;;5.32;95.18
71903;BME280;59778;50.310;18.780;2023-02-17T10:18:40;99124.44;;;5.46;93.52
71903;BME280;59778;50.310;18.780;2023-02-17T10:49:43;99075.22;;;5.79;94.35
71903;BME280;59778;50.310;18.780;2023-02-17T11:05:06;99035.72;;;5.88;91.88
71903;BME280;59778;50.310;18.780;2023-02-17T11:20:31;98997.06;;;6.05;89.34
71903;BME280;59778;50.310;18.780;2023-02-17T11:35:54;98984.66;;;6.12;89.17
71903;BME280;59778;50.310;18.780;2023-02-17T11:51:46;98970.94;;;6.05;90.97
71903;BME280;59778;50.310;18.780;2023-02-17T12:07:38;98948.78;;;6.20;91.33
71903;BME280;59778;50.310;18.780;2023-02-17T12:39:02;98916.09;;;6.23;91.04
71903;BME280;59778;50.310;18.780;2023-02-17T12:54:38;98895.19;;;6.25;92.10
71903;BME280;59778;50.310;18.780;2023-02-17T13:10:03;98861.69;;;6.51;92.17
71903;BME280;59778;50.310;18.780;2023-02-17T13:25:30;98837.94;;;6.71;91.76
71903;BME280;59778;50.310;18.780;2023-02-17T13:40:58;98812.78;;;6.87;91.26
71903;BME280;59778;50.310;18.780;2023-02-17T13:56:28;98806.00;;;6.99;90.55
71903;BME280;59778;50.310;18.780;2023-02-17T14:11:51;98793.66;;;7.13;90.63
71903;BME280;59778;50.310;18.780;2023-02-17T14:27:12;98764.47;;;7.00;91.47
71903;BME280;59778;50.310;18.780;2023-02-17T14:42:34;98742.06;;;6.91;93.94
71903;BME280;59778;50.310;18.780;2023-02-17T14:57:55;98723.03;;;6.77;95.77
71903;BME280;59778;50.310;18.780;2023-02-17T15:13:19;98685.28;;;6.69;96.70
71903;BME280;59778;50.310;18.780;2023-02-17T15:28:40;98651.38;;;6.66;95.98
71903;BME280;59778;50.310;18.780;2023-02-17T15:44:02;98638.69;;;6.83;94.37
71903;BME280;59778;50.310;18.780;2023-02-17T15:59:25;98624.75;;;7.02;93.68
71903;BME280;59778;50.310;18.780;2023-02-17T16:14:46;98617.41;;;7.19;94.59
71903;BME280;59778;50.310;18.780;2023-02-17T16:30:21;98572.53;;;7.40;93.32
71903;BME280;59778;50.310;18.780;2023-02-17T16:45:53;98554.50;;;7.55;92.47
71903;BME280;59778;50.310;18.780;2023-02-17T17:01:15;98528.44;;;7.63;92.32
71903;BME280;59778;50.310;18.780;2023-02-17T17:16:36;98519.34;;;7.78;92.28
71903;BME280;59778;50.310;18.780;2023-02-17T17:31:59;98519.53;;;7.91;93.29
71903;BME280;59778;50.310;18.780;2023-02-17T17:47:20;98532.91;;;7.93;94.09
71903;BME280;59778;50.310;18.780;2023-02-17T18:02:42;98505.72;;;7.72;98.91
71903;BME280;59778;50.310;18.780;2023-02-17T18:18:04;98509.25;;;7.72;99.95
71903;BME280;59778;50.310;18.780;2023-02-17T18:33:26;98479.06;;;7.83;99.67
71903;BME280;59778;50.310;18.780;2023-02-17T18:48:48;98492.72;;;8.04;99.03
71903;BME280;59778;50.310;18.780;2023-02-17T19:04:09;98519.97;;;8.18;98.35
71903;BME280;59778;50.310;18.780;2023-02-17T19:19:36;98524.16;;;8.35;98.89
71903;BME280;59778;50.310;18.780;2023-02-17T19:34:58;98512.88;;;8.31;100.00
71903;BME280;59778;50.310;18.780;2023-02-17T19:50:20;98508.78;;;8.35;100.00
71903;BME280;59778;50.310;18.780;2023-02-17T20:05:41;98505.69;;;8.53;99.00
71903;BME280;59778;50.310;18.780;2023-02-17T20:21:04;98486.94;;;8.87;97.55
71903;BME280;59778;50.310;18.780;2023-02-17T20:36:26;98481.88;;;9.20;94.50
71903;BME280;59778;50.310;18.780;2023-02-17T20:51:47;98475.81;;;9.39;93.46
71903;BME280;59778;50.310;18.780;2023-02-17T21:07:09;98459.78;;;9.44;94.26
71903;BME280;59778;50.310;18.780;2023-02-17T21:22:31;98471.75;;;9.57;92.92
71903;BME280;59778;50.310;18.780;2023-02-17T21:37:52;98466.19;;;9.65;91.80
71903;BME280;59778;50.310;18.780;2023-02-17T21:53:14;98443.91;;;9.69;92.32
71903;BME280;59778;50.310;18.780;2023-02-17T22:08:36;98499.69;;;9.78;92.23
71903;BME280;59778;50.310;18.780;2023-02-17T22:24:00;98511.97;;;9.74;94.16
71903;BME280;59778;50.310;18.780;2023-02-17T22:39:21;98516.06;;;9.64;95.83
71903;BME280;59778;50.310;18.780;2023-02-17T22:54:43;98497.78;;;9.09;100.00
71903;BME280;59778;50.310;18.780;2023-02-17T23:10:05;98513.63;;;8.90;100.00
71903;BME280;59778;50.310;18.780;2023-02-17T23:25:26;98498.13;;;8.99;100.00
71903;BME280;59778;50.310;18.780;2023-02-17T23:40:49;98496.97;;;9.08;100.00
71903;BME280;59778;50.310;18.780;2023-02-17T23:56:14;98495.84;;;9.03;100.00
